map of AIA home
AIA - Airport
Location
City:  Alliance, Nebraska, United States
Name:Alliance Municipal Airport
ICAO:KAIA
IATA:AIA
FAA LID:AIA

Details
Type:Airport (Part 139 Class III)
Use:Public/Civil
Latitude:4203'12"N (42.053222)
Longitude:10248'13"W (-102.803749)
Datum:WGS 1984
Elevation:3930 ft (1198 m)
Variation:7.14E (WMM2015 magnetic declination)
-0.10 annual change
Runways:3
Longest:9203 × 150 ft (2805 × 45.5 m), paved

Time
Time Zone:UTC-6 (DST-5)
Local Time:

Weather
METAR:KAIA 230953Z AUTO 24003KT 10SM FEW100 M19/M21 A3008 RMK AO2 SLP256 T11941211
TAF:KAIA 230524Z 2306/2406 30008KT P6SM BKN150
FM231500 VRB03KT P6SM BKN100

Related Locations
Nearby:
Farthest:RRG: 10696 mi / 17214 km
Plaine Corail [Sir Gatan Duval Airport (Plaine Corail Airport)], Rodrigues Island, MU

Find:

   beyond  
but within

Other Information
Maps:
NOTAMs:
Links:
Sources:

  
flag of United States
flag of Nebraska
  

Airport Diagram

Airport diagram for AIA

Airport diagram PDF

Sectional Chart

Flight Planning
at skyvector.com

Satellite Image

Google Maps Satellite view

 

Copyright © 2004-2018 Karl L. Swartz. All rights reserved.
The Great Circle Mapper name and logo are trademarks of the Great Circle Mapper.
All other trademarks mentioned herein belong to their respective owners.
Please see credits for attibutions and further copyright information.

  Follow gcmap on Facebook Follow gcmap on Twitter Follow gcmap on Google+ GCmap on LinkedIn

hCard Microformat

Geo Microformat